sensor_id;sensor_type;location;lat;lon;timestamp;P1;durP1;ratioP1;P2;durP2;ratioP2
64297;SDS011;50639;53.270;7.956;2022-09-30T00:02:08;8.82;;;4.60;;
64297;SDS011;50639;53.270;7.956;2022-09-30T00:04:34;10.27;;;4.75;;
64297;SDS011;50639;53.270;7.956;2022-09-30T00:07:00;7.32;;;5.13;;
64297;SDS011;50639;53.270;7.956;2022-09-30T00:09:25;12.97;;;4.93;;
64297;SDS011;50639;53.270;7.956;2022-09-30T00:11:50;8.90;;;5.35;;
64297;SDS011;50639;53.270;7.956;2022-09-30T00:14:17;7.18;;;4.95;;
64297;SDS011;50639;53.270;7.956;2022-09-30T00:16:43;6.88;;;4.50;;
64297;SDS011;50639;53.270;7.956;2022-09-30T00:19:08;7.72;;;4.97;;
64297;SDS011;50639;53.270;7.956;2022-09-30T00:21:34;6.95;;;4.63;;
64297;SDS011;50639;53.270;7.956;2022-09-30T00:23:59;6.60;;;4.32;;
64297;SDS011;50639;53.270;7.956;2022-09-30T00:26:24;7.45;;;4.50;;
64297;SDS011;50639;53.270;7.956;2022-09-30T00:28:54;6.40;;;4.40;;
64297;SDS011;50639;53.270;7.956;2022-09-30T00:31:20;6.25;;;4.60;;
64297;SDS011;50639;53.270;7.956;2022-09-30T00:33:46;6.13;;;4.30;;
64297;SDS011;50639;53.270;7.956;2022-09-30T00:36:31;6.43;;;4.18;;
64297;SDS011;50639;53.270;7.956;2022-09-30T00:38:56;9.25;;;5.65;;
64297;SDS011;50639;53.270;7.956;2022-09-30T00:41:21;7.13;;;5.13;;
64297;SDS011;50639;53.270;7.956;2022-09-30T00:43:47;6.55;;;4.40;;
64297;SDS011;50639;53.270;7.956;2022-09-30T00:46:29;7.40;;;5.18;;
64297;SDS011;50639;53.270;7.956;2022-09-30T00:48:55;9.23;;;5.10;;
64297;SDS011;50639;53.270;7.956;2022-09-30T00:51:41;8.45;;;4.72;;
64297;SDS011;50639;53.270;7.956;2022-09-30T00:54:09;12.15;;;5.50;;
64297;SDS011;50639;53.270;7.956;2022-09-30T00:56:38;8.63;;;5.78;;
64297;SDS011;50639;53.270;7.956;2022-09-30T00:59:07;8.45;;;6.10;;
64297;SDS011;50639;53.270;7.956;2022-09-30T01:01:35;9.68;;;5.78;;
64297;SDS011;50639;53.270;7.956;2022-09-30T01:04:03;8.27;;;5.80;;
64297;SDS011;50639;53.270;7.956;2022-09-30T01:06:30;13.38;;;7.63;;
64297;SDS011;50639;53.270;7.956;2022-09-30T01:08:55;10.40;;;7.65;;
64297;SDS011;50639;53.270;7.956;2022-09-30T01:11:22;9.27;;;6.75;;
64297;SDS011;50639;53.270;7.956;2022-09-30T01:13:49;9.50;;;6.38;;
64297;SDS011;50639;53.270;7.956;2022-09-30T01:26:54;8.77;;;6.28;;
64297;SDS011;50639;53.270;7.956;2022-09-30T01:44:25;11.77;;;8.05;;
64297;SDS011;50639;53.270;7.956;2022-09-30T01:46:57;10.68;;;7.63;;
64297;SDS011;50639;53.270;7.956;2022-09-30T01:49:39;12.82;;;7.72;;
64297;SDS011;50639;53.270;7.956;2022-09-30T01:52:21;11.20;;;7.32;;
64297;SDS011;50639;53.270;7.956;2022-09-30T01:55:30;11.43;;;6.63;;
64297;SDS011;50639;53.270;7.956;2022-09-30T02:00:07;32.28;;;8.15;;
64297;SDS011;50639;53.270;7.956;2022-09-30T02:03:10;14.50;;;8.68;;
64297;SDS011;50639;53.270;7.956;2022-09-30T02:05:29;10.88;;;7.55;;
64297;SDS011;50639;53.270;7.956;2022-09-30T02:07:58;11.07;;;7.88;;
64297;SDS011;50639;53.270;7.956;2022-09-30T02:10:26;11.10;;;7.70;;
64297;SDS011;50639;53.270;7.956;2022-09-30T02:12:56;11.52;;;7.90;;
64297;SDS011;50639;53.270;7.956;2022-09-30T02:15:24;13.40;;;7.97;;
64297;SDS011;50639;53.270;7.956;2022-09-30T02:17:51;13.73;;;8.23;;
64297;SDS011;50639;53.270;7.956;2022-09-30T02:20:21;12.00;;;7.68;;
64297;SDS011;50639;53.270;7.956;2022-09-30T02:22:48;11.73;;;8.38;;
64297;SDS011;50639;53.270;7.956;2022-09-30T02:25:18;11.32;;;8.15;;
64297;SDS011;50639;53.270;7.956;2022-09-30T02:27:51;13.07;;;8.30;;
64297;SDS011;50639;53.270;7.956;2022-09-30T02:30:19;13.82;;;8.57;;
64297;SDS011;50639;53.270;7.956;2022-09-30T02:32:49;11.13;;;8.75;;
64297;SDS011;50639;53.270;7.956;2022-09-30T02:35:20;10.30;;;8.00;;
64297;SDS011;50639;53.270;7.956;2022-09-30T02:37:51;12.90;;;9.13;;
64297;SDS011;50639;53.270;7.956;2022-09-30T02:40:21;13.18;;;8.55;;
64297;SDS011;50639;53.270;7.956;2022-09-30T02:42:46;12.32;;;8.93;;
64297;SDS011;50639;53.270;7.956;2022-09-30T02:45:14;12.43;;;8.88;;
64297;SDS011;50639;53.270;7.956;2022-09-30T02:55:18;12.25;;;8.32;;
64297;SDS011;50639;53.270;7.956;2022-09-30T03:00:17;13.90;;;8.85;;
64297;SDS011;50639;53.270;7.956;2022-09-30T03:02:42;13.25;;;9.57;;
64297;SDS011;50639;53.270;7.956;2022-09-30T03:05:07;10.95;;;8.45;;
64297;SDS011;50639;53.270;7.956;2022-09-30T03:07:33;13.38;;;8.98;;
64297;SDS011;50639;53.270;7.956;2022-09-30T03:09:59;10.10;;;8.30;;
64297;SDS011;50639;53.270;7.956;2022-09-30T03:12:36;12.07;;;9.10;;
64297;SDS011;50639;53.270;7.956;2022-09-30T03:23:02;14.70;;;8.57;;
64297;SDS011;50639;53.270;7.956;2022-09-30T03:31:05;13.52;;;9.43;;
64297;SDS011;50639;53.270;7.956;2022-09-30T03:33:38;16.10;;;9.63;;
64297;SDS011;50639;53.270;7.956;2022-09-30T03:36:07;12.52;;;9.45;;
64297;SDS011;50639;53.270;7.956;2022-09-30T03:41:33;13.80;;;9.00;;
64297;SDS011;50639;53.270;7.956;2022-09-30T03:43:56;17.08;;;9.32;;
64297;SDS011;50639;53.270;7.956;2022-09-30T03:46:48;14.38;;;9.07;;
64297;SDS011;50639;53.270;7.956;2022-09-30T03:49:13;13.60;;;9.20;;
64297;SDS011;50639;53.270;7.956;2022-09-30T03:51:39;14.90;;;10.07;;
64297;SDS011;50639;53.270;7.956;2022-09-30T03:54:05;11.55;;;8.68;;
64297;SDS011;50639;53.270;7.956;2022-09-30T03:56:32;11.18;;;7.95;;
64297;SDS011;50639;53.270;7.956;2022-09-30T03:58:57;13.80;;;9.50;;
64297;SDS011;50639;53.270;7.956;2022-09-30T04:01:22;12.40;;;9.63;;
64297;SDS011;50639;53.270;7.956;2022-09-30T04:03:48;12.80;;;9.18;;
64297;SDS011;50639;53.270;7.956;2022-09-30T04:06:16;12.23;;;9.43;;
64297;SDS011;50639;53.270;7.956;2022-09-30T04:08:42;11.20;;;8.43;;
64297;SDS011;50639;53.270;7.956;2022-09-30T04:11:08;12.43;;;8.65;;
64297;SDS011;50639;53.270;7.956;2022-09-30T04:13:33;15.13;;;8.90;;
64297;SDS011;50639;53.270;7.956;2022-09-30T04:15:59;10.82;;;8.30;;
64297;SDS011;50639;53.270;7.956;2022-09-30T04:18:24;11.68;;;8.88;;
64297;SDS011;50639;53.270;7.956;2022-09-30T04:20:49;12.43;;;9.70;;
64297;SDS011;50639;53.270;7.956;2022-09-30T04:23:15;11.85;;;9.55;;
64297;SDS011;50639;53.270;7.956;2022-09-30T04:25:40;14.18;;;9.40;;
64297;SDS011;50639;53.270;7.956;2022-09-30T04:28:06;12.25;;;9.35;;
64297;SDS011;50639;53.270;7.956;2022-09-30T04:30:31;12.20;;;9.07;;
64297;SDS011;50639;53.270;7.956;2022-09-30T04:32:56;12.43;;;9.68;;
64297;SDS011;50639;53.270;7.956;2022-09-30T04:35:22;11.50;;;8.57;;
64297;SDS011;50639;53.270;7.956;2022-09-30T04:37:47;12.32;;;8.90;;
64297;SDS011;50639;53.270;7.956;2022-09-30T04:40:13;16.17;;;9.00;;
64297;SDS011;50639;53.270;7.956;2022-09-30T04:42:39;10.60;;;7.97;;
64297;SDS011;50639;53.270;7.956;2022-09-30T04:45:07;11.13;;;7.85;;
64297;SDS011;50639;53.270;7.956;2022-09-30T04:47:32;9.90;;;7.95;;
64297;SDS011;50639;53.270;7.956;2022-09-30T04:49:58;12.95;;;8.13;;
64297;SDS011;50639;53.270;7.956;2022-09-30T04:52:23;10.93;;;7.93;;
64297;SDS011;50639;53.270;7.956;2022-09-30T04:54:48;11.15;;;8.25;;
64297;SDS011;50639;53.270;7.956;2022-09-30T04:57:14;13.85;;;9.82;;
64297;SDS011;50639;53.270;7.956;2022-09-30T04:59:39;12.60;;;9.80;;
64297;SDS011;50639;53.270;7.956;2022-09-30T05:02:04;13.02;;;9.20;;
64297;SDS011;50639;53.270;7.956;2022-09-30T05:04:30;13.43;;;10.60;;
64297;SDS011;50639;53.270;7.956;2022-09-30T05:06:58;22.98;;;11.80;;
64297;SDS011;50639;53.270;7.956;2022-09-30T05:09:23;33.08;;;11.68;;
64297;SDS011;50639;53.270;7.956;2022-09-30T05:11:48;13.17;;;10.77;;
64297;SDS011;50639;53.270;7.956;2022-09-30T05:14:13;17.23;;;12.32;;
64297;SDS011;50639;53.270;7.956;2022-09-30T05:16:38;27.27;;;17.90;;
64297;SDS011;50639;53.270;7.956;2022-09-30T05:19:04;20.48;;;14.60;;
64297;SDS011;50639;53.270;7.956;2022-09-30T05:21:29;19.83;;;14.43;;
64297;SDS011;50639;53.270;7.956;2022-09-30T05:23:54;22.08;;;12.82;;
64297;SDS011;50639;53.270;7.956;2022-09-30T05:26:20;18.60;;;11.27;;
64297;SDS011;50639;53.270;7.956;2022-09-30T05:28:45;13.60;;;10.27;;
64297;SDS011;50639;53.270;7.956;2022-09-30T05:31:10;20.37;;;9.83;;
64297;SDS011;50639;53.270;7.956;2022-09-30T05:33:37;21.02;;;9.80;;
64297;SDS011;50639;53.270;7.956;2022-09-30T05:36:04;15.75;;;10.32;;
64297;SDS011;50639;53.270;7.956;2022-09-30T05:38:30;16.27;;;9.60;;
64297;SDS011;50639;53.270;7.956;2022-09-30T05:40:55;30.98;;;9.82;;
64297;SDS011;50639;53.270;7.956;2022-09-30T05:43:20;13.50;;;9.60;;
64297;SDS011;50639;53.270;7.956;2022-09-30T05:45:52;13.07;;;9.20;;
64297;SDS011;50639;53.270;7.956;2022-09-30T05:48:18;16.45;;;9.57;;
64297;SDS011;50639;53.270;7.956;2022-09-30T05:50:43;14.45;;;10.02;;
64297;SDS011;50639;53.270;7.956;2022-09-30T05:53:14;13.52;;;9.80;;
64297;SDS011;50639;53.270;7.956;2022-09-30T05:55:39;12.23;;;9.47;;
64297;SDS011;50639;53.270;7.956;2022-09-30T05:58:08;66.05;;;42.40;;
64297;SDS011;50639;53.270;7.956;2022-09-30T06:00:34;21.30;;;15.38;;
64297;SDS011;50639;53.270;7.956;2022-09-30T06:03:02;13.25;;;10.02;;
64297;SDS011;50639;53.270;7.956;2022-09-30T06:05:27;18.50;;;9.77;;
64297;SDS011;50639;53.270;7.956;2022-09-30T06:07:53;15.03;;;9.53;;
64297;SDS011;50639;53.270;7.956;2022-09-30T06:10:19;14.60;;;9.27;;
64297;SDS011;50639;53.270;7.956;2022-09-30T06:12:44;12.00;;;9.67;;
64297;SDS011;50639;53.270;7.956;2022-09-30T06:15:09;14.43;;;9.13;;
64297;SDS011;50639;53.270;7.956;2022-09-30T06:17:35;12.63;;;9.50;;
64297;SDS011;50639;53.270;7.956;2022-09-30T06:20:00;11.10;;;8.50;;
64297;SDS011;50639;53.270;7.956;2022-09-30T06:22:26;18.77;;;9.43;;
64297;SDS011;50639;53.270;7.956;2022-09-30T06:24:51;12.70;;;8.98;;
64297;SDS011;50639;53.270;7.956;2022-09-30T06:27:16;24.13;;;9.68;;
64297;SDS011;50639;53.270;7.956;2022-09-30T06:29:42;12.83;;;9.40;;
64297;SDS011;50639;53.270;7.956;2022-09-30T06:32:07;12.18;;;9.18;;
64297;SDS011;50639;53.270;7.956;2022-09-30T06:34:33;13.43;;;9.70;;
64297;SDS011;50639;53.270;7.956;2022-09-30T06:36:58;13.47;;;9.80;;
64297;SDS011;50639;53.270;7.956;2022-09-30T06:39:23;15.00;;;10.98;;
64297;SDS011;50639;53.270;7.956;2022-09-30T06:41:51;14.15;;;10.65;;
64297;SDS011;50639;53.270;7.956;2022-09-30T06:44:23;14.93;;;11.05;;
64297;SDS011;50639;53.270;7.956;2022-09-30T06:46:48;20.33;;;11.48;;
64297;SDS011;50639;53.270;7.956;2022-09-30T06:49:13;16.70;;;11.63;;
64297;SDS011;50639;53.270;7.956;2022-09-30T06:51:39;17.02;;;11.57;;
64297;SDS011;50639;53.270;7.956;2022-09-30T06:54:04;17.52;;;11.43;;
64297;SDS011;50639;53.270;7.956;2022-09-30T06:56:29;16.67;;;11.48;;
64297;SDS011;50639;53.270;7.956;2022-09-30T06:58:55;20.48;;;11.95;;
64297;SDS011;50639;53.270;7.956;2022-09-30T07:01:21;15.77;;;10.65;;
64297;SDS011;50639;53.270;7.956;2022-09-30T07:03:48;16.52;;;10.02;;
64297;SDS011;50639;53.270;7.956;2022-09-30T07:06:14;16.85;;;10.57;;
64297;SDS011;50639;53.270;7.956;2022-09-30T07:08:40;12.80;;;8.93;;
64297;SDS011;50639;53.270;7.956;2022-09-30T07:11:06;15.25;;;10.07;;
64297;SDS011;50639;53.270;7.956;2022-09-30T07:13:36;13.18;;;9.18;;
64297;SDS011;50639;53.270;7.956;2022-09-30T07:16:01;11.93;;;8.43;;
64297;SDS011;50639;53.270;7.956;2022-09-30T07:18:27;12.02;;;8.90;;
64297;SDS011;50639;53.270;7.956;2022-09-30T07:20:53;11.57;;;8.60;;
64297;SDS011;50639;53.270;7.956;2022-09-30T07:23:19;10.27;;;8.38;;
64297;SDS011;50639;53.270;7.956;2022-09-30T07:25:49;12.05;;;9.07;;
64297;SDS011;50639;53.270;7.956;2022-09-30T07:28:15;12.10;;;8.80;;
64297;SDS011;50639;53.270;7.956;2022-09-30T07:30:41;9.68;;;8.45;;
64297;SDS011;50639;53.270;7.956;2022-09-30T07:33:07;13.25;;;8.13;;
64297;SDS011;50639;53.270;7.956;2022-09-30T07:35:33;11.40;;;8.25;;
64297;SDS011;50639;53.270;7.956;2022-09-30T07:37:58;11.18;;;8.13;;
64297;SDS011;50639;53.270;7.956;2022-09-30T07:40:24;11.32;;;8.43;;
64297;SDS011;50639;53.270;7.956;2022-09-30T07:42:55;12.05;;;8.20;;
64297;SDS011;50639;53.270;7.956;2022-09-30T07:45:21;10.85;;;9.13;;
64297;SDS011;50639;53.270;7.956;2022-09-30T07:47:47;14.32;;;10.13;;
64297;SDS011;50639;53.270;7.956;2022-09-30T07:50:12;12.20;;;8.98;;
64297;SDS011;50639;53.270;7.956;2022-09-30T07:52:39;12.00;;;9.05;;
64297;SDS011;50639;53.270;7.956;2022-09-30T07:55:04;12.77;;;9.02;;
64297;SDS011;50639;53.270;7.956;2022-09-30T07:57:30;13.35;;;9.10;;
64297;SDS011;50639;53.270;7.956;2022-09-30T07:59:55;11.37;;;8.70;;
64297;SDS011;50639;53.270;7.956;2022-09-30T08:02:20;12.32;;;8.40;;
64297;SDS011;50639;53.270;7.956;2022-09-30T08:04:46;14.55;;;8.55;;
64297;SDS011;50639;53.270;7.956;2022-09-30T08:07:12;10.95;;;8.65;;
64297;SDS011;50639;53.270;7.956;2022-09-30T08:09:38;11.18;;;9.35;;
64297;SDS011;50639;53.270;7.956;2022-09-30T08:12:03;11.13;;;8.30;;
64297;SDS011;50639;53.270;7.956;2022-09-30T08:14:29;10.18;;;7.85;;
64297;SDS011;50639;53.270;7.956;2022-09-30T08:16:54;12.93;;;8.43;;
64297;SDS011;50639;53.270;7.956;2022-09-30T08:21:47;11.87;;;8.03;;
64297;SDS011;50639;53.270;7.956;2022-09-30T08:24:13;15.45;;;7.97;;
64297;SDS011;50639;53.270;7.956;2022-09-30T08:26:38;14.45;;;8.50;;
64297;SDS011;50639;53.270;7.956;2022-09-30T08:29:04;10.30;;;7.40;;
64297;SDS011;50639;53.270;7.956;2022-09-30T08:31:30;10.45;;;8.13;;
64297;SDS011;50639;53.270;7.956;2022-09-30T08:33:57;8.48;;;6.72;;
64297;SDS011;50639;53.270;7.956;2022-09-30T08:36:23;13.02;;;6.70;;
64297;SDS011;50639;53.270;7.956;2022-09-30T08:38:49;9.68;;;6.90;;
64297;SDS011;50639;53.270;7.956;2022-09-30T08:43:59;10.57;;;7.22;;
64297;SDS011;50639;53.270;7.956;2022-09-30T08:53:51;8.05;;;5.65;;
64297;SDS011;50639;53.270;7.956;2022-09-30T08:56:19;10.25;;;7.13;;
64297;SDS011;50639;53.270;7.956;2022-09-30T08:58:45;8.57;;;6.55;;
64297;SDS011;50639;53.270;7.956;2022-09-30T09:01:14;9.55;;;6.75;;
64297;SDS011;50639;53.270;7.956;2022-09-30T09:03:41;10.50;;;6.68;;
64297;SDS011;50639;53.270;7.956;2022-09-30T09:06:14;10.18;;;6.57;;
64297;SDS011;50639;53.270;7.956;2022-09-30T09:11:32;11.57;;;6.65;;
64297;SDS011;50639;53.270;7.956;2022-09-30T09:14:01;13.25;;;7.45;;
64297;SDS011;50639;53.270;7.956;2022-09-30T09:16:49;10.50;;;7.00;;
64297;SDS011;50639;53.270;7.956;2022-09-30T09:19:21;13.18;;;6.78;;
64297;SDS011;50639;53.270;7.956;2022-09-30T09:21:58;12.70;;;7.75;;
64297;SDS011;50639;53.270;7.956;2022-09-30T09:24:27;8.30;;;5.95;;
64297;SDS011;50639;53.270;7.956;2022-09-30T09:26:54;9.85;;;5.88;;
64297;SDS011;50639;53.270;7.956;2022-09-30T09:31:54;8.70;;;5.72;;
64297;SDS011;50639;53.270;7.956;2022-09-30T09:34:22;9.65;;;6.00;;
64297;SDS011;50639;53.270;7.956;2022-09-30T09:44:47;10.48;;;6.40;;
64297;SDS011;50639;53.270;7.956;2022-09-30T09:47:16;10.95;;;6.47;;
64297;SDS011;50639;53.270;7.956;2022-09-30T09:54:39;9.38;;;5.78;;
64297;SDS011;50639;53.270;7.956;2022-09-30T09:57:05;9.02;;;5.47;;
64297;SDS011;50639;53.270;7.956;2022-09-30T09:59:33;9.48;;;5.22;;
64297;SDS011;50639;53.270;7.956;2022-09-30T10:01:58;12.30;;;4.68;;
64297;SDS011;50639;53.270;7.956;2022-09-30T10:04:24;7.18;;;4.35;;
64297;SDS011;50639;53.270;7.956;2022-09-30T10:12:36;7.78;;;4.90;;
64297;SDS011;50639;53.270;7.956;2022-09-30T10:19:52;15.07;;;4.95;;
64297;SDS011;50639;53.270;7.956;2022-09-30T10:24:43;6.43;;;3.80;;
64297;SDS011;50639;53.270;7.956;2022-09-30T10:27:24;7.47;;;4.10;;
64297;SDS011;50639;53.270;7.956;2022-09-30T10:29:50;6.85;;;4.43;;
64297;SDS011;50639;53.270;7.956;2022-09-30T10:32:15;7.30;;;4.30;;
64297;SDS011;50639;53.270;7.956;2022-09-30T10:34:41;5.40;;;3.83;;
64297;SDS011;50639;53.270;7.956;2022-09-30T10:37:15;10.68;;;3.67;;
64297;SDS011;50639;53.270;7.956;2022-09-30T10:39:41;5.65;;;2.97;;
64297;SDS011;50639;53.270;7.956;2022-09-30T10:42:08;4.15;;;2.92;;
64297;SDS011;50639;53.270;7.956;2022-09-30T10:44:36;4.10;;;2.75;;
64297;SDS011;50639;53.270;7.956;2022-09-30T10:47:05;5.38;;;3.00;;
64297;SDS011;50639;53.270;7.956;2022-09-30T10:49:49;5.47;;;3.38;;
64297;SDS011;50639;53.270;7.956;2022-09-30T10:52:17;7.05;;;2.95;;
64297;SDS011;50639;53.270;7.956;2022-09-30T11:05:02;4.40;;;3.10;;
64297;SDS011;50639;53.270;7.956;2022-09-30T11:09:57;6.40;;;3.10;;
64297;SDS011;50639;53.270;7.956;2022-09-30T11:12:27;4.18;;;2.97;;
64297;SDS011;50639;53.270;7.956;2022-09-30T11:15:02;4.38;;;2.65;;
64297;SDS011;50639;53.270;7.956;2022-09-30T11:25:12;5.38;;;2.50;;
64297;SDS011;50639;53.270;7.956;2022-09-30T11:27:41;3.70;;;2.65;;
64297;SDS011;50639;53.270;7.956;2022-09-30T11:30:11;5.35;;;2.83;;
64297;SDS011;50639;53.270;7.956;2022-09-30T11:42:57;4.20;;;2.42;;
64297;SDS011;50639;53.270;7.956;2022-09-30T11:50:27;4.70;;;2.47;;
64297;SDS011;50639;53.270;7.956;2022-09-30T11:58:08;2.85;;;1.92;;
64297;SDS011;50639;53.270;7.956;2022-09-30T12:00:35;4.57;;;2.80;;
64297;SDS011;50639;53.270;7.956;2022-09-30T12:03:10;4.25;;;2.80;;
64297;SDS011;50639;53.270;7.956;2022-09-30T12:08:15;7.15;;;2.50;;
64297;SDS011;50639;53.270;7.956;2022-09-30T12:10:47;2.58;;;2.38;;
64297;SDS011;50639;53.270;7.956;2022-09-30T12:13:17;3.08;;;2.33;;
64297;SDS011;50639;53.270;7.956;2022-09-30T12:15:46;2.97;;;2.50;;
64297;SDS011;50639;53.270;7.956;2022-09-30T12:18:16;5.68;;;2.80;;
64297;SDS011;50639;53.270;7.956;2022-09-30T12:20:56;4.35;;;2.50;;
64297;SDS011;50639;53.270;7.956;2022-09-30T12:23:35;3.95;;;2.53;;
64297;SDS011;50639;53.270;7.956;2022-09-30T12:26:04;5.30;;;2.65;;
64297;SDS011;50639;53.270;7.956;2022-09-30T12:28:34;2.90;;;2.33;;
64297;SDS011;50639;53.270;7.956;2022-09-30T12:31:58;3.30;;;2.08;;
64297;SDS011;50639;53.270;7.956;2022-09-30T12:39:47;4.53;;;2.80;;
64297;SDS011;50639;53.270;7.956;2022-09-30T12:49:57;6.20;;;2.90;;
64297;SDS011;50639;53.270;7.956;2022-09-30T12:52:23;4.63;;;2.78;;
64297;SDS011;50639;53.270;7.956;2022-09-30T12:54:51;5.72;;;2.78;;
64297;SDS011;50639;53.270;7.956;2022-09-30T12:57:25;5.25;;;3.05;;
64297;SDS011;50639;53.270;7.956;2022-09-30T12:59:52;7.25;;;3.15;;
64297;SDS011;50639;53.270;7.956;2022-09-30T13:02:25;5.35;;;3.30;;
64297;SDS011;50639;53.270;7.956;2022-09-30T13:04:51;9.85;;;3.33;;
64297;SDS011;50639;53.270;7.956;2022-09-30T13:07:18;4.87;;;3.30;;
64297;SDS011;50639;53.270;7.956;2022-09-30T13:09:56;5.78;;;3.25;;
64297;SDS011;50639;53.270;7.956;2022-09-30T13:12:41;7.80;;;4.63;;
64297;SDS011;50639;53.270;7.956;2022-09-30T13:17:51;6.57;;;3.60;;
64297;SDS011;50639;53.270;7.956;2022-09-30T13:23:01;4.13;;;3.20;;
64297;SDS011;50639;53.270;7.956;2022-09-30T13:25:26;6.53;;;3.67;;
64297;SDS011;50639;53.270;7.956;2022-09-30T13:30:36;6.23;;;4.00;;
64297;SDS011;50639;53.270;7.956;2022-09-30T13:40:30;7.25;;;4.45;;
64297;SDS011;50639;53.270;7.956;2022-09-30T13:42:55;7.13;;;4.28;;
64297;SDS011;50639;53.270;7.956;2022-09-30T13:45:28;6.55;;;4.35;;
64297;SDS011;50639;53.270;7.956;2022-09-30T13:53:00;6.70;;;4.25;;
64297;SDS011;50639;53.270;7.956;2022-09-30T13:55:34;9.90;;;4.85;;
64297;SDS011;50639;53.270;7.956;2022-09-30T14:03:38;9.13;;;4.85;;
64297;SDS011;50639;53.270;7.956;2022-09-30T14:11:22;8.73;;;5.28;;
64297;SDS011;50639;53.270;7.956;2022-09-30T14:14:12;10.48;;;5.50;;
64297;SDS011;50639;53.270;7.956;2022-09-30T14:21:55;7.32;;;4.70;;
64297;SDS011;50639;53.270;7.956;2022-09-30T14:24:22;10.57;;;5.25;;
64297;SDS011;50639;53.270;7.956;2022-09-30T14:31:56;9.73;;;5.00;;
64297;SDS011;50639;53.270;7.956;2022-09-30T14:34:21;7.53;;;4.60;;
64297;SDS011;50639;53.270;7.956;2022-09-30T14:36:49;8.77;;;5.40;;
64297;SDS011;50639;53.270;7.956;2022-09-30T14:39:16;9.30;;;5.13;;
64297;SDS011;50639;53.270;7.956;2022-09-30T14:41:50;10.60;;;5.60;;
64297;SDS011;50639;53.270;7.956;2022-09-30T14:44:16;7.50;;;4.93;;
64297;SDS011;50639;53.270;7.956;2022-09-30T14:46:44;7.40;;;4.93;;
64297;SDS011;50639;53.270;7.956;2022-09-30T14:49:15;10.05;;;5.80;;
64297;SDS011;50639;53.270;7.956;2022-09-30T14:51:42;9.05;;;4.85;;
64297;SDS011;50639;53.270;7.956;2022-09-30T14:54:19;8.10;;;5.50;;
64297;SDS011;50639;53.270;7.956;2022-09-30T14:56:44;9.02;;;4.97;;
64297;SDS011;50639;53.270;7.956;2022-09-30T14:59:14;8.52;;;4.55;;
64297;SDS011;50639;53.270;7.956;2022-09-30T15:01:40;8.27;;;4.90;;
64297;SDS011;50639;53.270;7.956;2022-09-30T15:04:15;7.43;;;4.90;;
64297;SDS011;50639;53.270;7.956;2022-09-30T15:06:47;7.00;;;4.90;;
64297;SDS011;50639;53.270;7.956;2022-09-30T15:11:38;9.87;;;5.20;;
64297;SDS011;50639;53.270;7.956;2022-09-30T15:14:05;8.30;;;5.30;;
64297;SDS011;50639;53.270;7.956;2022-09-30T15:16:31;8.27;;;5.05;;
64297;SDS011;50639;53.270;7.956;2022-09-30T15:18:57;11.20;;;6.13;;
64297;SDS011;50639;53.270;7.956;2022-09-30T15:21:24;10.52;;;5.57;;
64297;SDS011;50639;53.270;7.956;2022-09-30T15:23:53;10.40;;;5.68;;
64297;SDS011;50639;53.270;7.956;2022-09-30T15:26:20;12.05;;;6.38;;
64297;SDS011;50639;53.270;7.956;2022-09-30T15:28:46;10.90;;;5.80;;
64297;SDS011;50639;53.270;7.956;2022-09-30T15:31:16;11.63;;;5.53;;
64297;SDS011;50639;53.270;7.956;2022-09-30T15:33:43;8.18;;;5.47;;
64297;SDS011;50639;53.270;7.956;2022-09-30T15:36:13;12.40;;;7.10;;
64297;SDS011;50639;53.270;7.956;2022-09-30T15:38:39;12.02;;;5.68;;
64297;SDS011;50639;53.270;7.956;2022-09-30T15:41:09;9.55;;;5.53;;
64297;SDS011;50639;53.270;7.956;2022-09-30T15:48:44;8.05;;;4.72;;
64297;SDS011;50639;53.270;7.956;2022-09-30T15:53:57;9.65;;;5.18;;
64297;SDS011;50639;53.270;7.956;2022-09-30T15:56:25;9.50;;;4.65;;
64297;SDS011;50639;53.270;7.956;2022-09-30T15:59:02;10.40;;;5.18;;
64297;SDS011;50639;53.270;7.956;2022-09-30T16:01:41;9.77;;;5.45;;
64297;SDS011;50639;53.270;7.956;2022-09-30T16:11:43;7.78;;;4.88;;
64297;SDS011;50639;53.270;7.956;2022-09-30T16:14:17;10.65;;;5.03;;
64297;SDS011;50639;53.270;7.956;2022-09-30T16:16:47;11.02;;;5.78;;
64297;SDS011;50639;53.270;7.956;2022-09-30T16:19:14;8.82;;;5.22;;
64297;SDS011;50639;53.270;7.956;2022-09-30T16:21:45;11.00;;;5.85;;
64297;SDS011;50639;53.270;7.956;2022-09-30T16:26:50;10.68;;;4.97;;
64297;SDS011;50639;53.270;7.956;2022-09-30T16:29:15;8.63;;;5.13;;
64297;SDS011;50639;53.270;7.956;2022-09-30T16:31:41;7.50;;;5.25;;
64297;SDS011;50639;53.270;7.956;2022-09-30T16:34:12;8.32;;;4.97;;
64297;SDS011;50639;53.270;7.956;2022-09-30T16:36:42;8.73;;;5.18;;
64297;SDS011;50639;53.270;7.956;2022-09-30T16:39:08;8.77;;;5.23;;
64297;SDS011;50639;53.270;7.956;2022-09-30T16:41:36;8.57;;;5.28;;
64297;SDS011;50639;53.270;7.956;2022-09-30T16:44:02;12.30;;;5.30;;
64297;SDS011;50639;53.270;7.956;2022-09-30T16:46:27;10.57;;;5.60;;
64297;SDS011;50639;53.270;7.956;2022-09-30T16:48:53;8.13;;;5.00;;
64297;SDS011;50639;53.270;7.956;2022-09-30T16:51:18;9.93;;;4.78;;
64297;SDS011;50639;53.270;7.956;2022-09-30T16:53:43;8.33;;;5.10;;
64297;SDS011;50639;53.270;7.956;2022-09-30T16:56:15;8.90;;;5.22;;
64297;SDS011;50639;53.270;7.956;2022-09-30T16:58:41;8.98;;;4.72;;
64297;SDS011;50639;53.270;7.956;2022-09-30T17:03:41;9.70;;;5.13;;
64297;SDS011;50639;53.270;7.956;2022-09-30T17:06:07;11.93;;;5.00;;
64297;SDS011;50639;53.270;7.956;2022-09-30T17:08:32;10.50;;;4.93;;
64297;SDS011;50639;53.270;7.956;2022-09-30T17:10:57;14.55;;;4.95;;
64297;SDS011;50639;53.270;7.956;2022-09-30T17:13:23;7.78;;;5.38;;
64297;SDS011;50639;53.270;7.956;2022-09-30T17:15:49;8.88;;;5.57;;
64297;SDS011;50639;53.270;7.956;2022-09-30T17:18:14;9.20;;;5.68;;
64297;SDS011;50639;53.270;7.956;2022-09-30T17:20:42;9.83;;;5.57;;
64297;SDS011;50639;53.270;7.956;2022-09-30T17:23:08;9.87;;;5.87;;
64297;SDS011;50639;53.270;7.956;2022-09-30T17:25:33;9.00;;;5.68;;
64297;SDS011;50639;53.270;7.956;2022-09-30T17:27:58;10.98;;;5.55;;
64297;SDS011;50639;53.270;7.956;2022-09-30T17:30:24;12.10;;;5.47;;
64297;SDS011;50639;53.270;7.956;2022-09-30T17:32:49;10.15;;;5.65;;
64297;SDS011;50639;53.270;7.956;2022-09-30T17:35:16;8.82;;;5.93;;
64297;SDS011;50639;53.270;7.956;2022-09-30T17:37:41;10.35;;;6.45;;
64297;SDS011;50639;53.270;7.956;2022-09-30T17:40:08;9.50;;;7.00;;
64297;SDS011;50639;53.270;7.956;2022-09-30T17:42:52;9.95;;;6.90;;
64297;SDS011;50639;53.270;7.956;2022-09-30T17:45:38;10.30;;;7.22;;
64297;SDS011;50639;53.270;7.956;2022-09-30T17:48:04;11.70;;;7.93;;
64297;SDS011;50639;53.270;7.956;2022-09-30T17:50:32;17.45;;;10.80;;
64297;SDS011;50639;53.270;7.956;2022-09-30T17:52:57;17.85;;;7.85;;
64297;SDS011;50639;53.270;7.956;2022-09-30T17:55:22;13.73;;;7.95;;
64297;SDS011;50639;53.270;7.956;2022-09-30T17:57:48;10.95;;;7.43;;
64297;SDS011;50639;53.270;7.956;2022-09-30T18:00:14;10.70;;;7.43;;
64297;SDS011;50639;53.270;7.956;2022-09-30T18:02:41;11.85;;;7.82;;
64297;SDS011;50639;53.270;7.956;2022-09-30T18:05:08;12.07;;;8.07;;
64297;SDS011;50639;53.270;7.956;2022-09-30T18:07:33;10.52;;;8.18;;
64297;SDS011;50639;53.270;7.956;2022-09-30T18:09:59;11.77;;;8.23;;
64297;SDS011;50639;53.270;7.956;2022-09-30T18:12:24;10.00;;;7.77;;
64297;SDS011;50639;53.270;7.956;2022-09-30T18:14:49;13.55;;;8.85;;
64297;SDS011;50639;53.270;7.956;2022-09-30T18:17:14;13.37;;;9.07;;
64297;SDS011;50639;53.270;7.956;2022-09-30T18:19:40;14.77;;;9.23;;
64297;SDS011;50639;53.270;7.956;2022-09-30T18:22:05;14.13;;;9.35;;
64297;SDS011;50639;53.270;7.956;2022-09-30T18:24:30;13.35;;;9.02;;